createdAt,value
2022-11-16T00:01:00.704Z,9.09
2022-11-16T00:03:27.706Z,9.10
2022-11-16T00:05:59.173Z,9.08
2022-11-16T00:08:26.101Z,9.06
2022-11-16T00:10:52.649Z,9.06
2022-11-16T00:13:20.036Z,9.06
2022-11-16T00:15:56.695Z,9.08
2022-11-16T00:18:23.451Z,9.10
2022-11-16T00:20:50.378Z,9.13
2022-11-16T00:23:17.141Z,9.15
2022-11-16T00:25:44.165Z,9.17
2022-11-16T00:28:10.983Z,9.19
2022-11-16T00:30:38.134Z,9.20
2022-11-16T00:33:06.301Z,9.20
2022-11-16T00:35:39.137Z,9.20
2022-11-16T00:38:07.706Z,9.19
2022-11-16T00:40:35.051Z,9.20
2022-11-16T00:43:01.686Z,9.18
2022-11-16T00:45:28.264Z,9.18
2022-11-16T00:48:00.192Z,9.16
2022-11-16T00:50:27.374Z,9.14
2022-11-16T00:52:54.076Z,9.14
2022-11-16T00:55:20.892Z,9.12
2022-11-16T00:57:47.523Z,9.09
2022-11-16T01:00:15.420Z,9.09
2022-11-16T01:02:42.039Z,9.08
2022-11-16T01:05:09.571Z,9.10
2022-11-16T01:07:38.012Z,9.08
2022-11-16T01:10:06.967Z,9.06
2022-11-16T01:12:34.772Z,9.00
2022-11-16T01:15:01.645Z,9.02
2022-11-16T01:17:28.225Z,9.05
2022-11-16T01:19:55.100Z,9.07
2022-11-16T01:22:21.641Z,9.09
2022-11-16T01:24:48.212Z,9.11
2022-11-16T01:27:14.919Z,9.10
2022-11-16T01:29:44.688Z,9.05
2022-11-16T01:32:11.409Z,9.03
2022-11-16T01:34:38.119Z,9.05
2022-11-16T01:37:32.324Z,9.05
2022-11-16T01:39:59.203Z,9.06
2022-11-16T01:42:28.759Z,9.05
2022-11-16T01:45:05.963Z,9.04
2022-11-16T01:47:33.838Z,9.02
2022-11-16T01:50:05.610Z,9.01
2022-11-16T01:52:36.358Z,9.03
2022-11-16T01:55:04.201Z,9.03
2022-11-16T01:57:43.597Z,9.02
2022-11-16T02:00:11.825Z,9.03
2022-11-16T02:02:43.214Z,9.06
2022-11-16T02:05:24.335Z,9.05
2022-11-16T02:08:43.544Z,9.09
2022-11-16T02:11:19.479Z,9.09
2022-11-16T02:14:24.233Z,9.09
2022-11-16T02:17:12.288Z,9.13
2022-11-16T02:20:08.849Z,9.14
2022-11-16T02:22:54.002Z,9.14
2022-11-16T02:25:30.043Z,9.13
2022-11-16T02:28:32.305Z,9.11
2022-11-16T02:31:04.899Z,9.09
2022-11-16T02:33:36.803Z,9.05
2022-11-16T02:36:08.101Z,9.03
2022-11-16T02:38:39.096Z,9.02
2022-11-16T02:41:17.032Z,9.01
2022-11-16T02:43:50.200Z,8.99
2022-11-16T02:46:26.489Z,9.00
2022-11-16T02:48:59.541Z,9.01
2022-11-16T02:51:27.759Z,9.02
2022-11-16T02:54:12.321Z,9.02
2022-11-16T02:56:56.164Z,9.04
2022-11-16T02:59:30.003Z,9.05
2022-11-16T03:02:05.850Z,9.05
2022-11-16T03:04:37.327Z,9.08
2022-11-16T03:07:08.610Z,9.08
2022-11-16T03:09:39.343Z,9.11
2022-11-16T03:12:14.106Z,9.10
2022-11-16T03:14:47.045Z,9.09
2022-11-16T03:17:28.991Z,9.09
2022-11-16T03:20:03.804Z,9.08
2022-11-16T03:22:43.151Z,9.07
2022-11-16T03:25:13.162Z,9.05
2022-11-16T03:27:51.750Z,9.02
2022-11-16T03:30:24.357Z,9.00
2022-11-16T03:33:00.833Z,8.99
2022-11-16T03:35:34.313Z,8.98
2022-11-16T03:38:03.397Z,8.96
2022-11-16T03:40:33.915Z,8.97
2022-11-16T03:43:05.649Z,8.97
2022-11-16T03:45:33.071Z,8.97
2022-11-16T03:47:59.974Z,8.96
2022-11-16T03:50:27.037Z,8.96
2022-11-16T03:52:53.875Z,8.96
2022-11-16T03:55:20.595Z,8.96
2022-11-16T03:57:47.400Z,8.96
2022-11-16T04:00:15.083Z,8.94
2022-11-16T04:02:41.731Z,8.94
2022-11-16T04:05:29.238Z,8.92
2022-11-16T04:08:14.395Z,8.91
2022-11-16T04:10:59.576Z,8.90
2022-11-16T04:13:48.829Z,8.88
2022-11-16T04:16:35.033Z,8.85
2022-11-16T04:19:23.571Z,8.81
2022-11-16T04:22:14.832Z,8.79
2022-11-16T04:24:45.593Z,8.75
2022-11-16T04:27:33.658Z,8.73
2022-11-16T04:30:03.413Z,8.71
2022-11-16T04:32:51.153Z,8.70
2022-11-16T04:35:36.176Z,8.69
2022-11-16T04:38:02.851Z,8.70
2022-11-16T04:40:33.343Z,8.72
2022-11-16T04:43:02.870Z,8.74
2022-11-16T04:45:52.271Z,8.75
2022-11-16T04:48:21.231Z,8.76
2022-11-16T04:50:50.747Z,8.76
2022-11-16T04:53:19.676Z,8.77
2022-11-16T04:55:50.549Z,8.76
2022-11-16T04:58:18.530Z,8.75
2022-11-16T05:00:45.270Z,8.71
2022-11-16T05:03:13.225Z,8.65
2022-11-16T05:05:39.905Z,8.65
2022-11-16T05:08:07.394Z,8.65
2022-11-16T05:10:35.524Z,8.65
2022-11-16T05:13:02.105Z,8.63
2022-11-16T05:15:28.693Z,8.62
2022-11-16T05:17:57.565Z,8.62
2022-11-16T05:20:43.824Z,8.64
2022-11-16T05:23:30.569Z,8.66
2022-11-16T05:26:00.218Z,8.68
2022-11-16T05:28:27.517Z,8.70
2022-11-16T05:30:54.111Z,8.68
2022-11-16T05:33:22.585Z,8.68
2022-11-16T05:35:50.754Z,8.72
2022-11-16T05:38:18.767Z,8.77
2022-11-16T05:40:47.339Z,8.79
2022-11-16T05:43:14.628Z,8.80
2022-11-16T05:45:49.069Z,8.80
2022-11-16T05:48:15.762Z,8.81
2022-11-16T05:50:43.390Z,8.83
2022-11-16T05:53:23.702Z,8.85
2022-11-16T05:55:50.617Z,8.86
2022-11-16T05:58:17.842Z,8.87
2022-11-16T06:00:47.871Z,8.89
2022-11-16T06:03:15.101Z,8.88
2022-11-16T06:05:42.026Z,8.87
2022-11-16T06:08:09.466Z,8.88
2022-11-16T06:10:36.455Z,8.88
2022-11-16T06:13:03.213Z,8.90
2022-11-16T06:15:30.399Z,8.89
2022-11-16T06:17:57.660Z,8.88
2022-11-16T06:20:24.819Z,8.86
2022-11-16T06:22:52.245Z,8.89
2022-11-16T06:25:18.890Z,8.91
2022-11-16T06:28:11.953Z,8.93
2022-11-16T06:30:40.259Z,8.97
2022-11-16T06:33:07.281Z,9.00
2022-11-16T06:39:40.222Z,9.07
2022-11-16T06:49:05.396Z,9.21
2022-11-16T06:51:33.001Z,9.21
2022-11-16T06:53:59.606Z,9.23
2022-11-16T06:56:27.109Z,9.23
2022-11-16T06:58:57.735Z,9.21
2022-11-16T07:01:25.943Z,9.19
2022-11-16T07:04:05.824Z,9.20
2022-11-16T07:06:33.447Z,9.24
2022-11-16T07:09:05.861Z,9.26
2022-11-16T07:11:37.331Z,9.27
2022-11-16T07:14:04.953Z,9.30
2022-11-16T07:20:08.081Z,9.45
2022-11-16T07:22:36.403Z,9.49
2022-11-16T07:26:16.234Z,9.59
2022-11-16T07:29:03.167Z,9.67
2022-11-16T07:31:31.912Z,9.72
2022-11-16T07:34:31.025Z,9.79
2022-11-16T07:37:44.334Z,9.85
2022-11-16T07:40:14.058Z,9.93
2022-11-16T07:42:44.947Z,9.92
2022-11-16T07:45:27.568Z,10.02
2022-11-16T07:48:00.304Z,10.05
2022-11-16T07:50:47.883Z,10.07
2022-11-16T07:54:25.116Z,10.09
2022-11-16T07:56:49.472Z,10.12
2022-11-16T07:59:23.132Z,10.14
2022-11-16T08:01:51.821Z,10.16
2022-11-16T08:04:20.549Z,10.20
2022-11-16T08:06:51.373Z,10.20
2022-11-16T08:09:20.150Z,10.21
2022-11-16T08:11:59.373Z,10.26
2022-11-16T08:14:27.620Z,10.29
2022-11-16T08:16:58.346Z,10.43
2022-11-16T08:19:26.356Z,10.52
2022-11-16T08:21:54.371Z,10.60
2022-11-16T08:24:22.549Z,10.65
2022-11-16T08:26:50.968Z,10.68
2022-11-16T08:29:34.379Z,10.68
2022-11-16T08:32:55.601Z,10.82
2022-11-16T08:35:24.533Z,10.92
2022-11-16T08:37:52.948Z,10.96
2022-11-16T08:40:22.207Z,11.02
2022-11-16T08:42:56.738Z,11.05
2022-11-16T08:48:53.375Z,11.02
2022-11-16T08:58:37.581Z,10.99
2022-11-16T09:01:14.315Z,10.96
2022-11-16T09:03:42.851Z,10.99
2022-11-16T09:06:12.000Z,11.05
2022-11-16T09:08:45.509Z,11.10
2022-11-16T09:11:20.299Z,11.16
2022-11-16T09:13:51.477Z,11.23
2022-11-16T09:16:21.567Z,11.23
2022-11-16T09:18:57.153Z,11.26
2022-11-16T09:21:27.527Z,11.28
2022-11-16T09:24:14.002Z,11.30
2022-11-16T09:33:13.835Z,11.32
2022-11-16T09:35:43.915Z,11.36
2022-11-16T09:38:17.509Z,11.36
2022-11-16T09:40:48.177Z,11.37
2022-11-16T09:43:45.746Z,11.48
2022-11-16T09:46:27.565Z,11.57
2022-11-16T09:49:02.817Z,11.69
2022-11-16T09:51:34.947Z,11.83
2022-11-16T09:54:07.416Z,11.94
2022-11-16T09:56:40.736Z,12.06
2022-11-16T09:59:12.188Z,12.19
2022-11-16T10:02:01.862Z,12.25
2022-11-16T10:04:43.184Z,12.30
2022-11-16T10:07:25.484Z,12.35
2022-11-16T10:09:52.365Z,12.41
2022-11-16T10:12:37.454Z,12.53
2022-11-16T10:15:13.866Z,12.70
2022-11-16T10:17:49.503Z,12.89
2022-11-16T10:20:31.251Z,13.04
2022-11-16T10:23:17.634Z,13.13
2022-11-16T10:25:46.817Z,13.23
2022-11-16T10:28:35.215Z,13.39
2022-11-16T10:31:30.575Z,13.67
2022-11-16T10:34:01.158Z,13.96
2022-11-16T10:36:32.126Z,14.07
2022-11-16T10:39:00.411Z,14.05
2022-11-16T10:41:36.827Z,14.09
2022-11-16T10:44:17.164Z,14.22
2022-11-16T10:46:55.217Z,14.51
2022-11-16T10:49:33.061Z,14.92
2022-11-16T10:52:00.367Z,15.36
2022-11-16T10:58:00.882Z,16.36
2022-11-16T11:00:51.267Z,16.71
2022-11-16T11:03:31.074Z,17.00
2022-11-16T11:05:58.382Z,17.27
2022-11-16T11:08:29.962Z,17.54
2022-11-16T11:11:26.060Z,17.66
2022-11-16T11:14:08.804Z,17.80
2022-11-16T11:16:38.700Z,17.92
2022-11-16T11:19:36.203Z,17.84
2022-11-16T11:22:05.168Z,17.64
2022-11-16T11:24:45.177Z,17.63
2022-11-16T11:27:13.473Z,17.58
2022-11-16T11:29:42.935Z,17.57
2022-11-16T11:32:23.900Z,17.55
2022-11-16T11:34:54.285Z,17.51
2022-11-16T11:37:29.226Z,17.49
2022-11-16T11:40:26.034Z,17.48
2022-11-16T11:44:25.059Z,17.46
2022-11-16T11:51:30.027Z,17.62
2022-11-16T11:54:00.625Z,17.68
2022-11-16T11:56:33.045Z,17.70
2022-11-16T11:59:05.333Z,17.68
2022-11-16T12:01:43.532Z,17.60
2022-11-16T12:04:23.052Z,17.46
2022-11-16T12:07:02.658Z,17.39
2022-11-16T12:09:54.729Z,17.30
2022-11-16T12:12:55.834Z,17.15
2022-11-16T12:15:42.810Z,17.05
2022-11-16T12:18:35.636Z,16.92
2022-11-16T12:21:38.698Z,16.93
2022-11-16T12:24:32.165Z,16.89
2022-11-16T12:27:27.271Z,16.90
2022-11-16T12:34:48.037Z,16.88
2022-11-16T12:37:43.506Z,16.82
2022-11-16T12:40:31.431Z,16.82
2022-11-16T12:43:20.976Z,16.78
2022-11-16T12:46:02.717Z,16.75
2022-11-16T12:52:27.028Z,16.75
2022-11-16T12:55:52.991Z,16.74
2022-11-16T12:58:40.466Z,16.70
2022-11-16T13:01:18.142Z,16.65
2022-11-16T13:03:52.731Z,16.59
2022-11-16T13:07:10.420Z,16.50
2022-11-16T13:09:45.955Z,16.41
2022-11-16T13:12:17.065Z,16.31
2022-11-16T13:14:50.971Z,16.15
2022-11-16T13:17:27.141Z,16.06
2022-11-16T13:20:15.042Z,15.95
2022-11-16T13:22:54.911Z,15.92
2022-11-16T13:25:43.599Z,15.82
2022-11-16T13:36:49.504Z,15.42
2022-11-16T13:39:58.031Z,15.29
2022-11-16T13:42:26.489Z,15.20
2022-11-16T13:45:09.835Z,15.07
2022-11-16T13:47:42.856Z,14.95
2022-11-16T13:50:20.541Z,14.90
2022-11-16T13:54:25.237Z,14.84
2022-11-16T13:56:16.000Z,14.73
2022-11-16T13:58:57.033Z,14.68
2022-11-16T14:01:56.938Z,14.61
2022-11-16T14:04:55.621Z,14.47
2022-11-16T14:07:31.755Z,14.34
2022-11-16T14:10:05.806Z,14.24
2022-11-16T14:12:38.926Z,14.11
2022-11-16T14:15:19.256Z,14.08
2022-11-16T14:17:57.481Z,13.97
2022-11-16T14:20:58.194Z,13.88
2022-11-16T14:23:47.341Z,13.76
2022-11-16T14:26:42.405Z,13.64
2022-11-16T14:29:44.719Z,13.65
2022-11-16T14:32:50.129Z,13.55
2022-11-16T14:35:34.460Z,13.50
2022-11-16T14:38:06.413Z,13.43
2022-11-16T14:40:47.491Z,13.34
2022-11-16T14:43:22.068Z,13.22
2022-11-16T14:45:57.339Z,13.05
2022-11-16T14:48:27.307Z,12.96
2022-11-16T14:51:13.095Z,12.78
2022-11-16T14:53:57.536Z,12.75
2022-11-16T14:56:27.610Z,12.67
2022-11-16T14:58:58.140Z,12.56
2022-11-16T15:01:33.469Z,12.39
2022-11-16T15:04:06.064Z,12.26
2022-11-16T15:06:48.595Z,12.15
2022-11-16T15:13:24.582Z,12.02
2022-11-16T15:16:10.339Z,11.94
2022-11-16T15:18:38.623Z,12.01
2022-11-16T15:21:20.171Z,11.94
2022-11-16T15:24:02.065Z,11.96
2022-11-16T15:26:47.861Z,11.92
2022-11-16T15:29:18.792Z,11.84
2022-11-16T15:31:47.618Z,11.86
2022-11-16T15:34:19.772Z,11.84
2022-11-16T15:36:48.265Z,11.85
2022-11-16T15:39:22.528Z,11.89
2022-11-16T15:41:51.625Z,11.91
2022-11-16T15:44:20.695Z,11.94
2022-11-16T15:46:51.762Z,11.98
2022-11-16T15:49:31.913Z,11.99
2022-11-16T15:52:01.591Z,11.94
2022-11-16T15:54:50.711Z,11.97
2022-11-16T15:57:19.558Z,11.95
2022-11-16T16:02:36.941Z,11.89
2022-11-16T16:05:05.874Z,11.91
2022-11-16T16:07:38.034Z,11.92
2022-11-16T16:10:23.780Z,11.94
2022-11-16T16:12:53.655Z,11.97
2022-11-16T16:15:25.481Z,12.00
2022-11-16T16:17:54.052Z,12.01
2022-11-16T16:20:23.264Z,11.96
2022-11-16T16:22:51.237Z,12.01
2022-11-16T16:25:31.972Z,12.00
2022-11-16T16:27:59.990Z,11.97
2022-11-16T16:30:29.479Z,11.91
2022-11-16T16:32:56.868Z,11.83
2022-11-16T16:35:25.840Z,11.81
2022-11-16T16:38:04.641Z,11.81
2022-11-16T16:40:32.492Z,11.81
2022-11-16T16:42:59.498Z,11.82
2022-11-16T16:45:40.006Z,11.82
2022-11-16T16:48:12.063Z,11.80
2022-11-16T16:50:40.420Z,11.75
2022-11-16T16:53:11.583Z,11.73
2022-11-16T16:55:38.880Z,11.66
2022-11-16T16:58:06.079Z,11.61
2022-11-16T17:00:33.381Z,11.58
2022-11-16T17:03:01.154Z,11.54
2022-11-16T17:05:31.154Z,11.48
2022-11-16T17:07:58.283Z,11.35
2022-11-16T17:10:25.673Z,11.21
2022-11-16T17:12:53.273Z,11.17
2022-11-16T17:15:21.422Z,11.18
2022-11-16T17:17:48.392Z,11.18
2022-11-16T17:20:15.873Z,11.16
2022-11-16T17:22:43.565Z,11.09
2022-11-16T17:25:11.013Z,11.03
2022-11-16T17:27:38.822Z,11.00
2022-11-16T17:30:06.703Z,10.96
2022-11-16T17:32:33.953Z,10.94
2022-11-16T17:35:02.380Z,10.90
2022-11-16T17:37:29.414Z,10.76
2022-11-16T17:40:01.329Z,10.68
2022-11-16T17:42:28.636Z,10.66
2022-11-16T17:44:55.814Z,10.57
2022-11-16T17:47:25.740Z,10.60
2022-11-16T17:49:52.652Z,10.65
2022-11-16T17:52:19.825Z,10.67
2022-11-16T17:54:46.612Z,10.71
2022-11-16T17:57:13.953Z,10.67
2022-11-16T17:59:41.033Z,10.64
2022-11-16T18:02:10.974Z,10.62
2022-11-16T18:04:38.780Z,10.52
2022-11-16T18:07:06.115Z,10.50
2022-11-16T18:09:33.450Z,10.47
2022-11-16T18:12:00.952Z,10.46
2022-11-16T18:14:29.084Z,10.45
2022-11-16T18:17:02.361Z,10.47
2022-11-16T18:19:34.686Z,10.48
2022-11-16T18:22:01.976Z,10.50
2022-11-16T18:24:29.239Z,10.52
2022-11-16T18:26:57.385Z,10.53
2022-11-16T18:29:24.547Z,10.55
2022-11-16T18:31:51.581Z,10.58
2022-11-16T18:34:19.046Z,10.58
2022-11-16T18:36:50.029Z,10.57
2022-11-16T18:39:17.404Z,10.61
2022-11-16T18:41:55.580Z,10.64
2022-11-16T18:44:25.612Z,10.65
2022-11-16T18:46:52.866Z,10.65
2022-11-16T18:49:20.153Z,10.67
2022-11-16T18:51:47.314Z,10.69
2022-11-16T18:54:17.288Z,10.73
2022-11-16T18:56:44.492Z,10.79
2022-11-16T18:59:11.486Z,10.81
2022-11-16T19:01:38.341Z,10.82
2022-11-16T19:04:08.385Z,10.84
2022-11-16T19:06:35.402Z,10.82
2022-11-16T19:09:03.938Z,10.80
2022-11-16T19:11:31.673Z,10.76
2022-11-16T19:14:01.002Z,10.73
2022-11-16T19:16:30.336Z,10.71
2022-11-16T19:18:57.463Z,10.70
2022-11-16T19:21:26.564Z,10.69
2022-11-16T19:23:55.548Z,10.69
2022-11-16T19:26:26.143Z,10.71
2022-11-16T19:28:54.390Z,10.74
2022-11-16T19:31:27.986Z,10.75
2022-11-16T19:34:06.968Z,10.79
2022-11-16T19:36:36.348Z,10.82
2022-11-16T19:39:05.402Z,10.86
2022-11-16T19:41:33.410Z,10.86
2022-11-16T19:44:03.139Z,10.88
2022-11-16T19:46:32.230Z,10.93
2022-11-16T19:48:59.822Z,10.93
2022-11-16T19:51:29.265Z,10.94
2022-11-16T19:54:00.222Z,10.95
2022-11-16T19:56:30.866Z,10.96
2022-11-16T19:58:57.958Z,10.98
2022-11-16T20:01:28.277Z,11.00
2022-11-16T20:03:58.641Z,10.99
2022-11-16T20:06:29.265Z,10.94
2022-11-16T20:09:04.206Z,10.92
2022-11-16T20:11:35.350Z,10.89
2022-11-16T20:14:05.256Z,10.84
2022-11-16T20:16:38.659Z,10.79
2022-11-16T20:19:09.791Z,10.82
2022-11-16T20:21:39.222Z,10.83
2022-11-16T20:24:09.098Z,10.82
2022-11-16T20:26:40.059Z,10.84
2022-11-16T20:29:13.740Z,10.86
2022-11-16T20:31:44.192Z,10.85
2022-11-16T20:34:15.031Z,10.79
2022-11-16T20:36:49.357Z,10.66
2022-11-16T20:39:20.843Z,10.59
2022-11-16T20:41:48.552Z,10.57
2022-11-16T20:44:22.357Z,10.50
2022-11-16T20:46:52.302Z,10.36
2022-11-16T20:49:22.289Z,10.30
2022-11-16T20:51:53.542Z,10.23
2022-11-16T20:54:21.380Z,10.11
2022-11-16T20:56:49.985Z,10.03
2022-11-16T20:59:19.802Z,9.85
2022-11-16T21:01:49.031Z,9.78
2022-11-16T21:04:17.314Z,9.73
2022-11-16T21:06:45.960Z,9.78
2022-11-16T21:09:22.235Z,9.77
2022-11-16T21:12:08.815Z,9.85
2022-11-16T21:14:37.100Z,9.87
2022-11-16T21:17:05.861Z,9.90
2022-11-16T21:19:36.430Z,9.86
2022-11-16T21:22:06.207Z,9.84
2022-11-16T21:24:35.475Z,9.82
2022-11-16T21:27:04.846Z,9.77
2022-11-16T21:29:34.651Z,9.78
2022-11-16T21:32:05.113Z,9.78
2022-11-16T21:34:37.256Z,9.76
2022-11-16T21:37:08.066Z,9.73
2022-11-16T21:39:35.769Z,9.75
2022-11-16T21:42:03.668Z,9.75
2022-11-16T21:44:42.910Z,9.69
2022-11-16T21:47:12.335Z,9.53
2022-11-16T21:50:08.342Z,9.45
2022-11-16T21:52:29.267Z,9.32
2022-11-16T21:55:00.698Z,9.34
2022-11-16T21:57:28.294Z,9.38
2022-11-16T21:59:55.719Z,9.39
2022-11-16T22:02:26.425Z,9.41
2022-11-16T22:05:13.829Z,9.42
2022-11-16T22:07:41.921Z,9.43
2022-11-16T22:10:10.892Z,9.53
2022-11-16T22:12:38.636Z,9.59
2022-11-16T22:15:06.734Z,9.57
2022-11-16T22:17:34.418Z,9.55
2022-11-16T22:20:01.383Z,9.55
2022-11-16T22:22:28.539Z,9.54
2022-11-16T22:24:55.978Z,9.47
2022-11-16T22:27:23.253Z,9.50
2022-11-16T22:29:50.615Z,9.41
2022-11-16T22:32:18.061Z,9.42
2022-11-16T22:34:46.096Z,9.40
2022-11-16T22:37:14.660Z,9.45
2022-11-16T22:39:42.778Z,9.46
2022-11-16T22:42:12.567Z,9.38
2022-11-16T22:44:39.665Z,9.39
2022-11-16T22:47:09.959Z,9.35
2022-11-16T22:50:06.135Z,9.31
2022-11-16T22:52:37.132Z,9.35
2022-11-16T22:55:04.445Z,9.46
2022-11-16T22:57:46.423Z,9.48
2022-11-16T23:00:23.216Z,9.53
2022-11-16T23:02:51.758Z,9.57
2022-11-16T23:05:18.784Z,9.54
2022-11-16T23:07:45.651Z,9.54
2022-11-16T23:10:13.307Z,9.46
2022-11-16T23:13:15.625Z,9.49
2022-11-16T23:15:48.883Z,9.48
2022-11-16T23:18:17.061Z,9.37
2022-11-16T23:21:19.666Z,9.40
2022-11-16T23:24:05.413Z,9.44
2022-11-16T23:26:51.208Z,9.38
2022-11-16T23:29:19.237Z,9.35
2022-11-16T23:31:48.569Z,9.34
2022-11-16T23:34:16.576Z,9.33
2022-11-16T23:36:44.650Z,9.42
2022-11-16T23:39:12.494Z,9.37
2022-11-16T23:41:58.902Z,9.45
2022-11-16T23:44:26.637Z,9.46
2022-11-16T23:46:54.270Z,9.47
2022-11-16T23:49:22.277Z,9.45
2022-11-16T23:51:50.321Z,9.46
2022-11-16T23:57:18.426Z,9.29
2022-11-16T23:59:47.229Z,9.34
